sensor_id;sensor_type;location;lat;lon;timestamp;pressure;altitude;pressure_sealevel;temperature;humidity
65718;BME280;52445;52.466;-1.016;2022-09-27T00:01:09;98914.72;;;10.75;68.30
65718;BME280;52445;52.466;-1.016;2022-09-27T00:03:36;98920.03;;;10.69;68.42
65718;BME280;52445;52.466;-1.016;2022-09-27T00:06:25;98921.88;;;10.64;67.79
65718;BME280;52445;52.466;-1.016;2022-09-27T00:08:53;98911.03;;;10.45;68.58
65718;BME280;52445;52.466;-1.016;2022-09-27T00:11:26;98917.00;;;10.48;67.56
65718;BME280;52445;52.466;-1.016;2022-09-27T00:13:54;98924.81;;;10.47;67.79
65718;BME280;52445;52.466;-1.016;2022-09-27T00:16:24;98922.28;;;10.42;67.76
65718;BME280;52445;52.466;-1.016;2022-09-27T00:18:51;98926.69;;;10.37;68.31
65718;BME280;52445;52.466;-1.016;2022-09-27T00:21:18;98925.06;;;10.33;68.27
65718;BME280;52445;52.466;-1.016;2022-09-27T00:23:44;98929.44;;;10.27;68.07
65718;BME280;52445;52.466;-1.016;2022-09-27T00:26:12;98929.50;;;10.24;68.11
65718;BME280;52445;52.466;-1.016;2022-09-27T00:28:39;98939.06;;;10.21;68.48
65718;BME280;52445;52.466;-1.016;2022-09-27T00:31:15;98936.63;;;10.13;68.09
65718;BME280;52445;52.466;-1.016;2022-09-27T00:33:43;98938.41;;;10.11;67.68
65718;BME280;52445;52.466;-1.016;2022-09-27T00:36:09;98932.44;;;10.07;68.54
65718;BME280;52445;52.466;-1.016;2022-09-27T00:38:36;98940.28;;;10.02;68.39
65718;BME280;52445;52.466;-1.016;2022-09-27T00:41:02;98934.31;;;9.97;68.06
65718;BME280;52445;52.466;-1.016;2022-09-27T00:43:42;98934.47;;;9.89;68.57
65718;BME280;52445;52.466;-1.016;2022-09-27T00:46:09;98928.50;;;9.86;68.48
65718;BME280;52445;52.466;-1.016;2022-09-27T00:48:38;98922.53;;;9.81;68.40
65718;BME280;52445;52.466;-1.016;2022-09-27T00:51:06;98921.72;;;9.79;68.30
65718;BME280;52445;52.466;-1.016;2022-09-27T00:53:41;98915.75;;;9.75;68.20
65718;BME280;52445;52.466;-1.016;2022-09-27T00:56:16;98923.59;;;9.70;68.21
65718;BME280;52445;52.466;-1.016;2022-09-27T00:58:49;98927.09;;;9.66;67.70
65718;BME280;52445;52.466;-1.016;2022-09-27T01:01:18;98940.94;;;9.62;67.89
65718;BME280;52445;52.466;-1.016;2022-09-27T01:03:51;98945.28;;;9.61;68.56
65718;BME280;52445;52.466;-1.016;2022-09-27T01:06:21;98937.56;;;9.60;68.16
65718;BME280;52445;52.466;-1.016;2022-09-27T01:08:48;98928.09;;;9.59;68.14
65718;BME280;52445;52.466;-1.016;2022-09-27T01:17:19;98930.94;;;9.43;68.84
65718;BME280;52445;52.466;-1.016;2022-09-27T01:22:45;98920.66;;;9.40;68.65
65718;BME280;52445;52.466;-1.016;2022-09-27T01:44:50;98905.34;;;9.28;69.10
65718;BME280;52445;52.466;-1.016;2022-09-27T01:47:20;98911.41;;;9.23;67.86
65718;BME280;52445;52.466;-1.016;2022-09-27T01:52:34;98915.84;;;9.15;68.26
65718;BME280;52445;52.466;-1.016;2022-09-27T01:55:05;98914.19;;;9.11;67.83
65718;BME280;52445;52.466;-1.016;2022-09-27T01:57:37;98915.09;;;9.07;67.93
65718;BME280;52445;52.466;-1.016;2022-09-27T02:00:08;98903.97;;;9.05;68.21
65718;BME280;52445;52.466;-1.016;2022-09-27T02:02:39;98899.72;;;9.00;67.77
65718;BME280;52445;52.466;-1.016;2022-09-27T02:05:09;98901.47;;;8.98;68.35
65718;BME280;52445;52.466;-1.016;2022-09-27T02:07:43;98899.78;;;8.96;67.55
65718;BME280;52445;52.466;-1.016;2022-09-27T02:10:19;98906.69;;;8.94;68.53
65718;BME280;52445;52.466;-1.016;2022-09-27T02:13:14;98900.75;;;8.87;67.60
65718;BME280;52445;52.466;-1.016;2022-09-27T02:15:54;98899.91;;;8.86;67.84
65718;BME280;52445;52.466;-1.016;2022-09-27T02:18:31;98887.03;;;8.85;67.85
65718;BME280;52445;52.466;-1.016;2022-09-27T02:21:01;98896.50;;;8.84;68.57
65718;BME280;52445;52.466;-1.016;2022-09-27T02:23:51;98893.16;;;8.78;67.97
65718;BME280;52445;52.466;-1.016;2022-09-27T02:26:23;98886.22;;;8.80;68.37
65718;BME280;52445;52.466;-1.016;2022-09-27T02:28:58;98894.00;;;8.77;67.39
65718;BME280;52445;52.466;-1.016;2022-09-27T02:31:27;98881.97;;;8.76;67.81
65718;BME280;52445;52.466;-1.016;2022-09-27T02:33:59;98878.59;;;8.73;68.41
65718;BME280;52445;52.466;-1.016;2022-09-27T02:36:28;98887.19;;;8.72;68.62
65718;BME280;52445;52.466;-1.016;2022-09-27T02:38:55;98870.84;;;8.73;68.70
65718;BME280;52445;52.466;-1.016;2022-09-27T02:41:22;98871.66;;;8.76;67.78
65718;BME280;52445;52.466;-1.016;2022-09-27T02:43:53;98871.63;;;8.79;67.74
65718;BME280;52445;52.466;-1.016;2022-09-27T02:55:13;98848.41;;;8.77;68.06
65718;BME280;52445;52.466;-1.016;2022-09-27T03:00:40;98852.81;;;8.70;68.37
65718;BME280;52445;52.466;-1.016;2022-09-27T03:05:53;98852.88;;;8.64;67.86
65718;BME280;52445;52.466;-1.016;2022-09-27T03:08:23;98847.75;;;8.63;67.90
65718;BME280;52445;52.466;-1.016;2022-09-27T03:10:50;98851.22;;;8.60;67.44
65718;BME280;52445;52.466;-1.016;2022-09-27T03:13:17;98844.38;;;8.59;68.26
65718;BME280;52445;52.466;-1.016;2022-09-27T03:15:43;98852.09;;;8.60;68.13
65718;BME280;52445;52.466;-1.016;2022-09-27T03:18:10;98844.31;;;8.62;68.29
65718;BME280;52445;52.466;-1.016;2022-09-27T03:20:36;98842.53;;;8.66;68.74
65718;BME280;52445;52.466;-1.016;2022-09-27T03:23:03;98844.22;;;8.68;68.44
65718;BME280;52445;52.466;-1.016;2022-09-27T03:25:30;98835.56;;;8.71;68.24
65718;BME280;52445;52.466;-1.016;2022-09-27T03:27:56;98839.88;;;8.72;67.88
65718;BME280;52445;52.466;-1.016;2022-09-27T03:30:23;98835.56;;;8.72;67.92
65718;BME280;52445;52.466;-1.016;2022-09-27T03:32:49;98839.88;;;8.72;68.29
65718;BME280;52445;52.466;-1.016;2022-09-27T03:35:16;98832.16;;;8.70;67.90
65718;BME280;52445;52.466;-1.016;2022-09-27T03:37:42;98840.78;;;8.69;68.63
65718;BME280;52445;52.466;-1.016;2022-09-27T03:40:10;98829.63;;;8.67;68.02
65718;BME280;52445;52.466;-1.016;2022-09-27T03:42:37;98825.34;;;8.65;68.74
65718;BME280;52445;52.466;-1.016;2022-09-27T03:45:04;98825.34;;;8.66;68.58
65718;BME280;52445;52.466;-1.016;2022-09-27T03:47:30;98815.00;;;8.66;68.02
65718;BME280;52445;52.466;-1.016;2022-09-27T03:49:57;98821.00;;;8.68;68.77
65718;BME280;52445;52.466;-1.016;2022-09-27T03:52:23;98821.81;;;8.70;68.78
65718;BME280;52445;52.466;-1.016;2022-09-27T03:54:50;98826.94;;;8.73;69.12
65718;BME280;52445;52.466;-1.016;2022-09-27T03:57:17;98826.03;;;8.78;68.86
65718;BME280;52445;52.466;-1.016;2022-09-27T03:59:43;98822.53;;;8.82;68.64
65718;BME280;52445;52.466;-1.016;2022-09-27T04:02:10;98820.72;;;8.85;69.79
65718;BME280;52445;52.466;-1.016;2022-09-27T04:04:37;98813.84;;;8.87;69.51
65718;BME280;52445;52.466;-1.016;2022-09-27T04:07:03;98820.66;;;8.90;69.20
65718;BME280;52445;52.466;-1.016;2022-09-27T04:09:30;98799.09;;;8.94;69.53
65718;BME280;52445;52.466;-1.016;2022-09-27T04:11:56;98802.50;;;8.96;69.11
65718;BME280;52445;52.466;-1.016;2022-09-27T04:14:23;98801.59;;;8.99;69.53
65718;BME280;52445;52.466;-1.016;2022-09-27T04:16:49;98800.69;;;9.02;69.15
65718;BME280;52445;52.466;-1.016;2022-09-27T04:19:16;98794.63;;;9.04;69.49
65718;BME280;52445;52.466;-1.016;2022-09-27T04:21:43;98798.88;;;9.07;69.09
65718;BME280;52445;52.466;-1.016;2022-09-27T04:24:09;98797.16;;;9.07;69.55
65718;BME280;52445;52.466;-1.016;2022-09-27T04:26:37;98793.69;;;9.08;69.66
65718;BME280;52445;52.466;-1.016;2022-09-27T04:29:05;98785.88;;;9.11;69.92
65718;BME280;52445;52.466;-1.016;2022-09-27T04:31:33;98791.03;;;9.13;69.64
65718;BME280;52445;52.466;-1.016;2022-09-27T04:34:00;98797.00;;;9.15;69.30
65718;BME280;52445;52.466;-1.016;2022-09-27T04:36:26;98790.09;;;9.17;69.19
65718;BME280;52445;52.466;-1.016;2022-09-27T04:38:55;98779.72;;;9.20;68.95
65718;BME280;52445;52.466;-1.016;2022-09-27T04:41:23;98780.53;;;9.22;69.66
65718;BME280;52445;52.466;-1.016;2022-09-27T04:43:50;98773.59;;;9.26;69.25
65718;BME280;52445;52.466;-1.016;2022-09-27T04:46:24;98777.84;;;9.29;69.19
65718;BME280;52445;52.466;-1.016;2022-09-27T04:48:51;98776.06;;;9.31;68.55
65718;BME280;52445;52.466;-1.016;2022-09-27T04:51:17;98774.31;;;9.33;69.22
65718;BME280;52445;52.466;-1.016;2022-09-27T04:53:45;98776.88;;;9.34;69.19
65718;BME280;52445;52.466;-1.016;2022-09-27T04:56:13;98769.09;;;9.36;69.36
65718;BME280;52445;52.466;-1.016;2022-09-27T04:58:41;98772.50;;;9.38;69.41
65718;BME280;52445;52.466;-1.016;2022-09-27T05:01:08;98768.22;;;9.37;69.30
65718;BME280;52445;52.466;-1.016;2022-09-27T05:03:35;98768.19;;;9.38;69.07
65718;BME280;52445;52.466;-1.016;2022-09-27T05:06:02;98759.56;;;9.39;69.52
65718;BME280;52445;52.466;-1.016;2022-09-27T05:08:28;98760.41;;;9.40;69.09
65718;BME280;52445;52.466;-1.016;2022-09-27T05:10:55;98758.63;;;9.42;69.07
65718;BME280;52445;52.466;-1.016;2022-09-27T05:13:21;98755.19;;;9.43;68.99
65718;BME280;52445;52.466;-1.016;2022-09-27T05:15:48;98756.88;;;9.44;68.99
65718;BME280;52445;52.466;-1.016;2022-09-27T05:18:15;98757.69;;;9.46;68.93
65718;BME280;52445;52.466;-1.016;2022-09-27T05:20:43;98760.28;;;9.46;69.07
65718;BME280;52445;52.466;-1.016;2022-09-27T05:23:10;98768.88;;;9.48;68.60
65718;BME280;52445;52.466;-1.016;2022-09-27T05:25:37;98767.19;;;9.47;69.17
65718;BME280;52445;52.466;-1.016;2022-09-27T05:28:04;98763.72;;;9.48;69.02
65718;BME280;52445;52.466;-1.016;2022-09-27T05:30:31;98771.50;;;9.47;69.15
65718;BME280;52445;52.466;-1.016;2022-09-27T05:32:58;98769.75;;;9.49;68.82
65718;BME280;52445;52.466;-1.016;2022-09-27T05:35:25;98763.69;;;9.50;68.80
65718;BME280;52445;52.466;-1.016;2022-09-27T05:37:53;98758.47;;;9.51;68.82
65718;BME280;52445;52.466;-1.016;2022-09-27T05:40:20;98763.59;;;9.55;69.30
65718;BME280;52445;52.466;-1.016;2022-09-27T05:43:06;98771.34;;;9.55;69.15
65718;BME280;52445;52.466;-1.016;2022-09-27T05:45:33;98768.69;;;9.58;68.46
65718;BME280;52445;52.466;-1.016;2022-09-27T05:47:59;98763.59;;;9.55;68.77
65718;BME280;52445;52.466;-1.016;2022-09-27T05:50:26;98759.22;;;9.58;68.71
65718;BME280;52445;52.466;-1.016;2022-09-27T05:52:53;98762.66;;;9.59;68.86
65718;BME280;52445;52.466;-1.016;2022-09-27T05:55:20;98762.66;;;9.59;69.64
65718;BME280;52445;52.466;-1.016;2022-09-27T05:57:57;98767.00;;;9.57;68.50
65718;BME280;52445;52.466;-1.016;2022-09-27T06:00:25;98765.25;;;9.59;69.22
65718;BME280;52445;52.466;-1.016;2022-09-27T06:02:53;98761.78;;;9.58;69.12
65718;BME280;52445;52.466;-1.016;2022-09-27T06:05:21;98760.13;;;9.56;69.46
65718;BME280;52445;52.466;-1.016;2022-09-27T06:07:49;98760.13;;;9.56;69.68
65718;BME280;52445;52.466;-1.016;2022-09-27T06:10:17;98750.69;;;9.53;69.68
65718;BME280;52445;52.466;-1.016;2022-09-27T06:12:45;98755.00;;;9.52;69.77
65718;BME280;52445;52.466;-1.016;2022-09-27T06:15:11;98748.16;;;9.51;69.84
65718;BME280;52445;52.466;-1.016;2022-09-27T06:17:38;98744.72;;;9.49;70.55
65718;BME280;52445;52.466;-1.016;2022-09-27T06:20:05;98750.75;;;9.50;70.46
65718;BME280;52445;52.466;-1.016;2022-09-27T06:22:33;98753.31;;;9.51;70.42
65718;BME280;52445;52.466;-1.016;2022-09-27T06:24:59;98748.94;;;9.54;70.23
65718;BME280;52445;52.466;-1.016;2022-09-27T06:27:26;98747.19;;;9.56;69.93
65718;BME280;52445;52.466;-1.016;2022-09-27T06:29:52;98749.72;;;9.59;70.25
65718;BME280;52445;52.466;-1.016;2022-09-27T06:32:19;98753.13;;;9.61;70.03
65718;BME280;52445;52.466;-1.016;2022-09-27T06:34:45;98755.69;;;9.62;70.31
65718;BME280;52445;52.466;-1.016;2022-09-27T06:37:12;98748.75;;;9.64;70.13
65718;BME280;52445;52.466;-1.016;2022-09-27T06:39:38;98758.25;;;9.64;70.23
65718;BME280;52445;52.466;-1.016;2022-09-27T06:42:05;98749.59;;;9.65;70.39
65718;BME280;52445;52.466;-1.016;2022-09-27T06:44:32;98746.97;;;9.67;70.31
65718;BME280;52445;52.466;-1.016;2022-09-27T06:47:00;98754.69;;;9.70;70.55
65718;BME280;52445;52.466;-1.016;2022-09-27T06:49:26;98752.00;;;9.74;70.24
65718;BME280;52445;52.466;-1.016;2022-09-27T06:51:53;98749.34;;;9.77;70.33
65718;BME280;52445;52.466;-1.016;2022-09-27T06:54:20;98749.28;;;9.81;70.05
65718;BME280;52445;52.466;-1.016;2022-09-27T06:56:47;98749.19;;;9.85;70.19
65718;BME280;52445;52.466;-1.016;2022-09-27T06:59:14;98744.00;;;9.87;70.10
65718;BME280;52445;52.466;-1.016;2022-09-27T07:02:00;98749.09;;;9.90;70.32
65718;BME280;52445;52.466;-1.016;2022-09-27T07:04:27;98733.50;;;9.93;70.17
65718;BME280;52445;52.466;-1.016;2022-09-27T07:06:54;98737.78;;;9.96;70.61
65718;BME280;52445;52.466;-1.016;2022-09-27T07:09:21;98729.97;;;9.97;70.38
65718;BME280;52445;52.466;-1.016;2022-09-27T07:11:48;98731.63;;;10.01;70.46
65718;BME280;52445;52.466;-1.016;2022-09-27T07:14:14;98738.44;;;10.06;70.89
65718;BME280;52445;52.466;-1.016;2022-09-27T07:16:44;98725.47;;;10.07;70.89
65718;BME280;52445;52.466;-1.016;2022-09-27T07:19:10;98738.34;;;10.09;70.18
65718;BME280;52445;52.466;-1.016;2022-09-27T07:21:39;98727.97;;;10.10;70.93
65718;BME280;52445;52.466;-1.016;2022-09-27T07:24:06;98728.81;;;10.11;70.71
65718;BME280;52445;52.466;-1.016;2022-09-27T07:26:32;98726.22;;;10.12;70.51
65718;BME280;52445;52.466;-1.016;2022-09-27T07:28:59;98724.44;;;10.13;70.27
65718;BME280;52445;52.466;-1.016;2022-09-27T07:31:26;98722.78;;;10.10;70.65
65718;BME280;52445;52.466;-1.016;2022-09-27T07:33:55;98720.16;;;10.12;70.53
65718;BME280;52445;52.466;-1.016;2022-09-27T07:36:21;98722.75;;;10.12;70.31
65718;BME280;52445;52.466;-1.016;2022-09-27T07:38:48;98721.81;;;10.16;70.94
65718;BME280;52445;52.466;-1.016;2022-09-27T07:41:14;98708.81;;;10.19;71.08
65718;BME280;52445;52.466;-1.016;2022-09-27T07:43:41;98703.56;;;10.22;70.48
65718;BME280;52445;52.466;-1.016;2022-09-27T07:46:10;98706.09;;;10.25;70.90
65718;BME280;52445;52.466;-1.016;2022-09-27T07:48:37;98708.63;;;10.28;70.80
65718;BME280;52445;52.466;-1.016;2022-09-27T07:51:04;98706.81;;;10.31;71.05
65718;BME280;52445;52.466;-1.016;2022-09-27T07:53:33;98714.63;;;10.29;70.64
65718;BME280;52445;52.466;-1.016;2022-09-27T07:55:59;98711.13;;;10.30;70.99
65718;BME280;52445;52.466;-1.016;2022-09-27T07:58:26;98700.75;;;10.32;71.16
65718;BME280;52445;52.466;-1.016;2022-09-27T08:00:54;98710.25;;;10.33;71.27
65718;BME280;52445;52.466;-1.016;2022-09-27T08:03:22;98704.97;;;10.36;70.84
65718;BME280;52445;52.466;-1.016;2022-09-27T08:05:48;98704.91;;;10.39;70.81
65718;BME280;52445;52.466;-1.016;2022-09-27T08:08:16;98711.69;;;10.43;70.87
65718;BME280;52445;52.466;-1.016;2022-09-27T08:10:42;98701.31;;;10.46;70.94
65718;BME280;52445;52.466;-1.016;2022-09-27T08:13:13;98707.22;;;10.51;71.18
65718;BME280;52445;52.466;-1.016;2022-09-27T08:15:40;98710.56;;;10.57;70.52
65718;BME280;52445;52.466;-1.016;2022-09-27T08:18:07;98709.59;;;10.61;71.04
65718;BME280;52445;52.466;-1.016;2022-09-27T08:20:36;98711.31;;;10.62;71.08
65718;BME280;52445;52.466;-1.016;2022-09-27T08:23:03;98706.06;;;10.65;71.18
65718;BME280;52445;52.466;-1.016;2022-09-27T08:25:30;98707.75;;;10.66;70.78
65718;BME280;52445;52.466;-1.016;2022-09-27T08:27:58;98717.13;;;10.70;70.88
65718;BME280;52445;52.466;-1.016;2022-09-27T08:30:26;98716.09;;;10.77;70.89
65718;BME280;52445;52.466;-1.016;2022-09-27T08:32:55;98709.06;;;10.83;70.37
65718;BME280;52445;52.466;-1.016;2022-09-27T08:35:22;98713.22;;;10.88;71.38
65718;BME280;52445;52.466;-1.016;2022-09-27T08:37:54;98716.59;;;10.92;70.86
65718;BME280;52445;52.466;-1.016;2022-09-27T08:40:23;98708.75;;;10.95;70.65
65718;BME280;52445;52.466;-1.016;2022-09-27T08:45:34;98705.03;;;11.05;71.01
65718;BME280;52445;52.466;-1.016;2022-09-27T08:48:05;98702.28;;;11.12;71.11
65718;BME280;52445;52.466;-1.016;2022-09-27T08:50:36;98697.69;;;11.22;70.36
65718;BME280;52445;52.466;-1.016;2022-09-27T08:55:52;98697.47;;;11.29;71.02
65718;BME280;52445;52.466;-1.016;2022-09-27T08:58:42;98698.41;;;11.27;70.86
65718;BME280;52445;52.466;-1.016;2022-09-27T09:01:15;98693.75;;;11.40;69.90
65718;BME280;52445;52.466;-1.016;2022-09-27T09:03:47;98702.97;;;11.50;69.76
65718;BME280;52445;52.466;-1.016;2022-09-27T09:06:22;98702.00;;;11.54;70.10
65718;BME280;52445;52.466;-1.016;2022-09-27T09:20:02;98711.69;;;11.48;70.35
65718;BME280;52445;52.466;-1.016;2022-09-27T09:33:48;98695.41;;;11.73;71.73
65718;BME280;52445;52.466;-1.016;2022-09-27T09:39:02;98694.72;;;11.67;71.11
65718;BME280;52445;52.466;-1.016;2022-09-27T09:41:35;98694.75;;;11.66;70.81
65718;BME280;52445;52.466;-1.016;2022-09-27T09:44:26;98698.13;;;11.68;71.55
65718;BME280;52445;52.466;-1.016;2022-09-27T09:46:56;98697.97;;;11.74;71.42
65718;BME280;52445;52.466;-1.016;2022-09-27T09:52:09;98690.72;;;11.86;70.41
65718;BME280;52445;52.466;-1.016;2022-09-27T09:54:41;98684.50;;;11.91;71.22
65718;BME280;52445;52.466;-1.016;2022-09-27T09:59:50;98678.31;;;12.26;69.97
65718;BME280;52445;52.466;-1.016;2022-09-27T10:04:56;98690.84;;;12.11;70.11
65718;BME280;52445;52.466;-1.016;2022-09-27T10:07:24;98679.78;;;12.06;69.94
65718;BME280;52445;52.466;-1.016;2022-09-27T10:09:55;98667.81;;;12.00;69.89
65718;BME280;52445;52.466;-1.016;2022-09-27T10:12:22;98667.97;;;11.94;70.39
65718;BME280;52445;52.466;-1.016;2022-09-27T10:14:50;98673.25;;;11.91;71.28
65718;BME280;52445;52.466;-1.016;2022-09-27T10:17:22;98671.47;;;11.93;71.51
65718;BME280;52445;52.466;-1.016;2022-09-27T10:19:50;98665.38;;;11.94;70.59
65718;BME280;52445;52.466;-1.016;2022-09-27T10:24:58;98652.50;;;11.91;70.80
65718;BME280;52445;52.466;-1.016;2022-09-27T10:27:27;98643.84;;;11.92;70.02
65718;BME280;52445;52.466;-1.016;2022-09-27T10:29:57;98647.13;;;11.97;69.98
65718;BME280;52445;52.466;-1.016;2022-09-27T10:32:28;98642.69;;;12.01;70.43
65718;BME280;52445;52.466;-1.016;2022-09-27T10:35:19;98638.34;;;12.01;70.60
65718;BME280;52445;52.466;-1.016;2022-09-27T10:37:49;98642.28;;;12.15;70.56
65718;BME280;52445;52.466;-1.016;2022-09-27T10:40:27;98649.47;;;12.33;70.90
65718;BME280;52445;52.466;-1.016;2022-09-27T10:42:54;98634.41;;;12.45;68.92
65718;BME280;52445;52.466;-1.016;2022-09-27T10:45:29;98637.63;;;12.52;69.38
65718;BME280;52445;52.466;-1.016;2022-09-27T10:47:58;98631.50;;;12.54;68.92
65718;BME280;52445;52.466;-1.016;2022-09-27T10:50:28;98641.72;;;12.59;68.61
65718;BME280;52445;52.466;-1.016;2022-09-27T10:53:18;98635.47;;;12.65;69.03
65718;BME280;52445;52.466;-1.016;2022-09-27T10:55:48;98634.59;;;12.66;68.60
65718;BME280;52445;52.466;-1.016;2022-09-27T10:58:19;98628.22;;;12.75;68.51
65718;BME280;52445;52.466;-1.016;2022-09-27T11:00:55;98626.84;;;12.90;68.82
65718;BME280;52445;52.466;-1.016;2022-09-27T11:03:23;98621.09;;;13.05;69.06
65718;BME280;52445;52.466;-1.016;2022-09-27T11:05:51;98617.50;;;13.09;67.54
65718;BME280;52445;52.466;-1.016;2022-09-27T11:11:24;98623.66;;;13.07;67.19
65718;BME280;52445;52.466;-1.016;2022-09-27T11:14:01;98615.91;;;13.05;66.11
65718;BME280;52445;52.466;-1.016;2022-09-27T11:19:23;98611.72;;;13.25;67.73
65718;BME280;52445;52.466;-1.016;2022-09-27T11:46:31;98589.97;;;13.74;63.30
65718;BME280;52445;52.466;-1.016;2022-09-27T11:51:56;98590.88;;;13.95;62.64
65718;BME280;52445;52.466;-1.016;2022-09-27T11:54:42;98584.47;;;13.82;62.31
65718;BME280;52445;52.466;-1.016;2022-09-27T12:08:16;98579.22;;;14.26;61.76
65718;BME280;52445;52.466;-1.016;2022-09-27T12:10:51;98579.53;;;14.39;61.98
65718;BME280;52445;52.466;-1.016;2022-09-27T12:13:31;98581.97;;;14.44;60.96
65718;BME280;52445;52.466;-1.016;2022-09-27T12:15:59;98580.78;;;14.51;60.55
65718;BME280;52445;52.466;-1.016;2022-09-27T12:21:05;98583.28;;;14.55;60.32
65718;BME280;52445;52.466;-1.016;2022-09-27T12:23:53;98570.44;;;14.50;60.04
65718;BME280;52445;52.466;-1.016;2022-09-27T12:26:26;98577.09;;;14.57;59.77
65718;BME280;52445;52.466;-1.016;2022-09-27T12:28:58;98569.13;;;14.60;60.09
65718;BME280;52445;52.466;-1.016;2022-09-27T12:31:31;98572.00;;;14.54;59.20
65718;BME280;52445;52.466;-1.016;2022-09-27T12:36:40;98580.19;;;14.65;58.40
65718;BME280;52445;52.466;-1.016;2022-09-27T12:39:17;98580.34;;;14.42;58.86
65718;BME280;52445;52.466;-1.016;2022-09-27T12:41:50;98572.91;;;14.32;58.88
65718;BME280;52445;52.466;-1.016;2022-09-27T12:44:21;98572.50;;;14.21;59.25
65718;BME280;52445;52.466;-1.016;2022-09-27T12:52:14;98570.25;;;13.91;59.85
65718;BME280;52445;52.466;-1.016;2022-09-27T13:01:13;98554.41;;;13.52;59.28
65718;BME280;52445;52.466;-1.016;2022-09-27T13:14:42;98544.00;;;13.52;61.17
65718;BME280;52445;52.466;-1.016;2022-09-27T13:31:09;98522.72;;;14.08;60.46
65718;BME280;52445;52.466;-1.016;2022-09-27T13:36:30;98530.44;;;14.09;60.15
65718;BME280;52445;52.466;-1.016;2022-09-27T13:47:36;98525.84;;;14.16;59.28
65718;BME280;52445;52.466;-1.016;2022-09-27T13:50:27;98519.91;;;14.12;58.54
65718;BME280;52445;52.466;-1.016;2022-09-27T13:53:00;98514.44;;;14.19;58.05
65718;BME280;52445;52.466;-1.016;2022-09-27T13:55:46;98518.78;;;14.18;57.28
65718;BME280;52445;52.466;-1.016;2022-09-27T14:00:53;98522.13;;;14.22;56.62
65718;BME280;52445;52.466;-1.016;2022-09-27T14:06:05;98519.53;;;14.22;56.42
65718;BME280;52445;52.466;-1.016;2022-09-27T14:08:41;98514.56;;;14.16;56.51
65718;BME280;52445;52.466;-1.016;2022-09-27T14:11:14;98513.53;;;13.99;55.96
65718;BME280;52445;52.466;-1.016;2022-09-27T14:13:44;98517.41;;;13.88;55.87
65718;BME280;52445;52.466;-1.016;2022-09-27T14:16:15;98513.81;;;13.70;56.12
65718;BME280;52445;52.466;-1.016;2022-09-27T14:18:47;98526.22;;;13.64;56.56
65718;BME280;52445;52.466;-1.016;2022-09-27T14:29:53;98524.97;;;13.72;57.25
65718;BME280;52445;52.466;-1.016;2022-09-27T14:32:25;98523.34;;;13.70;57.41
65718;BME280;52445;52.466;-1.016;2022-09-27T14:35:13;98526.22;;;13.64;57.21
65718;BME280;52445;52.466;-1.016;2022-09-27T14:38:01;98518.41;;;13.64;57.00
65718;BME280;52445;52.466;-1.016;2022-09-27T14:43:24;98510.06;;;13.55;57.66
65718;BME280;52445;52.466;-1.016;2022-09-27T14:45:56;98513.56;;;13.54;57.50
65718;BME280;52445;52.466;-1.016;2022-09-27T14:53:45;98526.00;;;13.91;56.70
65718;BME280;52445;52.466;-1.016;2022-09-27T14:56:15;98513.75;;;13.72;57.07
65718;BME280;52445;52.466;-1.016;2022-09-27T14:58:44;98517.44;;;13.66;57.62
65718;BME280;52445;52.466;-1.016;2022-09-27T15:01:15;98513.97;;;13.66;57.83
65718;BME280;52445;52.466;-1.016;2022-09-27T15:03:44;98514.09;;;13.62;57.07
65718;BME280;52445;52.466;-1.016;2022-09-27T15:06:12;98514.91;;;13.65;57.20
65718;BME280;52445;52.466;-1.016;2022-09-27T15:08:39;98522.75;;;13.63;57.35
65718;BME280;52445;52.466;-1.016;2022-09-27T15:11:06;98516.97;;;13.56;57.09
65718;BME280;52445;52.466;-1.016;2022-09-27T15:13:36;98519.34;;;13.39;57.52
65718;BME280;52445;52.466;-1.016;2022-09-27T15:16:15;98519.41;;;13.37;56.78
65718;BME280;52445;52.466;-1.016;2022-09-27T15:18:47;98508.09;;;13.38;57.42
65718;BME280;52445;52.466;-1.016;2022-09-27T15:21:27;98514.25;;;13.35;56.68
65718;BME280;52445;52.466;-1.016;2022-09-27T15:23:54;98513.31;;;13.38;56.57
65718;BME280;52445;52.466;-1.016;2022-09-27T15:26:24;98506.59;;;13.32;57.93
65718;BME280;52445;52.466;-1.016;2022-09-27T15:28:52;98507.38;;;13.34;57.18
65718;BME280;52445;52.466;-1.016;2022-09-27T15:31:35;98502.66;;;13.22;57.87
65718;BME280;52445;52.466;-1.016;2022-09-27T15:34:03;98498.16;;;13.26;58.21
65718;BME280;52445;52.466;-1.016;2022-09-27T15:36:53;98484.63;;;13.17;57.73
65718;BME280;52445;52.466;-1.016;2022-09-27T15:39:41;98489.22;;;13.10;57.70
65718;BME280;52445;52.466;-1.016;2022-09-27T15:42:09;98495.97;;;13.15;57.46
65718;BME280;52445;52.466;-1.016;2022-09-27T15:44:45;98497.56;;;13.19;58.05
65718;BME280;52445;52.466;-1.016;2022-09-27T15:52:53;98504.09;;;13.29;58.37
65718;BME280;52445;52.466;-1.016;2022-09-27T15:55:23;98510.38;;;13.23;57.21
65718;BME280;52445;52.466;-1.016;2022-09-27T15:57:54;98495.94;;;13.39;56.81
65718;BME280;52445;52.466;-1.016;2022-09-27T16:00:24;98493.09;;;13.45;57.43
65718;BME280;52445;52.466;-1.016;2022-09-27T16:02:52;98498.41;;;13.42;56.86
65718;BME280;52445;52.466;-1.016;2022-09-27T16:05:20;98493.59;;;13.32;57.11
65718;BME280;52445;52.466;-1.016;2022-09-27T16:07:50;98493.59;;;13.32;56.36
65718;BME280;52445;52.466;-1.016;2022-09-27T16:10:19;98498.31;;;13.22;56.58
65718;BME280;52445;52.466;-1.016;2022-09-27T16:12:46;98497.81;;;13.13;57.40
65718;BME280;52445;52.466;-1.016;2022-09-27T16:15:14;98499.72;;;13.07;56.99
65718;BME280;52445;52.466;-1.016;2022-09-27T16:17:40;98499.81;;;13.04;57.23
65718;BME280;52445;52.466;-1.016;2022-09-27T16:20:17;98495.53;;;13.03;57.50
65718;BME280;52445;52.466;-1.016;2022-09-27T16:22:44;98506.75;;;13.05;58.29
65718;BME280;52445;52.466;-1.016;2022-09-27T16:25:11;98491.00;;;13.08;58.00
65718;BME280;52445;52.466;-1.016;2022-09-27T16:27:38;98494.47;;;13.09;57.68
65718;BME280;52445;52.466;-1.016;2022-09-27T16:30:05;98490.91;;;13.11;57.62
65718;BME280;52445;52.466;-1.016;2022-09-27T16:32:31;98496.22;;;13.08;57.32
65718;BME280;52445;52.466;-1.016;2022-09-27T16:34:58;98488.56;;;13.05;58.39
65718;BME280;52445;52.466;-1.016;2022-09-27T16:37:25;98482.56;;;13.03;58.23
65718;BME280;52445;52.466;-1.016;2022-09-27T16:39:51;98481.72;;;13.03;57.89
65718;BME280;52445;52.466;-1.016;2022-09-27T16:42:18;98474.09;;;12.98;58.32